sensor_id;sensor_type;location;lat;lon;timestamp;P1;durP1;ratioP1;P2;durP2;ratioP2
9034;SDS011;4552;43.422;24.592;2023-06-01T00:00:48;6.57;;;5.53;;
9034;SDS011;4552;43.422;24.592;2023-06-01T00:03:23;6.50;;;4.63;;
9034;SDS011;4552;43.422;24.592;2023-06-01T00:05:51;5.97;;;4.90;;
9034;SDS011;4552;43.422;24.592;2023-06-01T00:08:18;5.50;;;5.00;;
9034;SDS011;4552;43.422;24.592;2023-06-01T00:10:45;6.33;;;4.57;;
9034;SDS011;4552;43.422;24.592;2023-06-01T00:13:12;7.67;;;4.87;;
9034;SDS011;4552;43.422;24.592;2023-06-01T00:15:40;5.67;;;4.90;;
9034;SDS011;4552;43.422;24.592;2023-06-01T00:18:08;6.50;;;5.20;;
9034;SDS011;4552;43.422;24.592;2023-06-01T00:20:38;8.70;;;4.70;;
9034;SDS011;4552;43.422;24.592;2023-06-01T00:23:05;7.23;;;5.07;;
9034;SDS011;4552;43.422;24.592;2023-06-01T00:25:34;5.63;;;5.03;;
9034;SDS011;4552;43.422;24.592;2023-06-01T00:28:01;5.60;;;4.63;;
9034;SDS011;4552;43.422;24.592;2023-06-01T00:30:28;10.77;;;4.30;;
9034;SDS011;4552;43.422;24.592;2023-06-01T00:32:56;6.17;;;4.57;;
9034;SDS011;4552;43.422;24.592;2023-06-01T00:35:23;5.03;;;4.53;;
9034;SDS011;4552;43.422;24.592;2023-06-01T00:37:50;5.43;;;4.67;;
9034;SDS011;4552;43.422;24.592;2023-06-01T00:40:17;7.23;;;5.37;;
9034;SDS011;4552;43.422;24.592;2023-06-01T00:42:44;4.90;;;4.10;;
9034;SDS011;4552;43.422;24.592;2023-06-01T00:45:11;6.57;;;4.83;;
9034;SDS011;4552;43.422;24.592;2023-06-01T00:54:00;5.80;;;4.50;;
9034;SDS011;4552;43.422;24.592;2023-06-01T00:56:27;10.27;;;5.00;;
9034;SDS011;4552;43.422;24.592;2023-06-01T00:58:56;8.50;;;4.93;;
9034;SDS011;4552;43.422;24.592;2023-06-01T01:01:23;5.33;;;4.60;;
9034;SDS011;4552;43.422;24.592;2023-06-01T01:03:51;5.97;;;4.83;;
9034;SDS011;4552;43.422;24.592;2023-06-01T01:06:28;5.93;;;4.70;;
9034;SDS011;4552;43.422;24.592;2023-06-01T01:09:19;6.23;;;4.60;;
9034;SDS011;4552;43.422;24.592;2023-06-01T01:11:57;5.30;;;4.57;;
9034;SDS011;4552;43.422;24.592;2023-06-01T01:14:28;8.37;;;4.77;;
9034;SDS011;4552;43.422;24.592;2023-06-01T01:17:01;5.47;;;4.13;;
9034;SDS011;4552;43.422;24.592;2023-06-01T01:19:41;8.37;;;5.30;;
9034;SDS011;4552;43.422;24.592;2023-06-01T01:22:22;7.33;;;5.10;;
9034;SDS011;4552;43.422;24.592;2023-06-01T01:25:12;6.43;;;4.80;;
9034;SDS011;4552;43.422;24.592;2023-06-01T01:27:54;6.97;;;4.37;;
9034;SDS011;4552;43.422;24.592;2023-06-01T01:30:35;9.70;;;4.90;;
9034;SDS011;4552;43.422;24.592;2023-06-01T01:56:08;5.90;;;4.30;;
9034;SDS011;4552;43.422;24.592;2023-06-01T01:58:36;8.47;;;4.37;;
9034;SDS011;4552;43.422;24.592;2023-06-01T02:01:03;4.63;;;3.87;;
9034;SDS011;4552;43.422;24.592;2023-06-01T02:03:31;5.60;;;4.10;;
9034;SDS011;4552;43.422;24.592;2023-06-01T02:05:58;6.17;;;4.17;;
9034;SDS011;4552;43.422;24.592;2023-06-01T02:08:25;4.67;;;3.20;;
9034;SDS011;4552;43.422;24.592;2023-06-01T02:10:53;4.23;;;3.73;;
9034;SDS011;4552;43.422;24.592;2023-06-01T02:13:20;5.00;;;4.10;;
9034;SDS011;4552;43.422;24.592;2023-06-01T02:15:47;6.00;;;4.60;;
9034;SDS011;4552;43.422;24.592;2023-06-01T02:18:14;5.37;;;3.90;;
9034;SDS011;4552;43.422;24.592;2023-06-01T02:20:43;4.40;;;3.87;;
9034;SDS011;4552;43.422;24.592;2023-06-01T02:23:10;6.07;;;4.07;;
9034;SDS011;4552;43.422;24.592;2023-06-01T02:25:37;5.13;;;4.20;;
9034;SDS011;4552;43.422;24.592;2023-06-01T02:28:05;6.77;;;4.80;;
9034;SDS011;4552;43.422;24.592;2023-06-01T02:30:33;6.77;;;4.30;;
9034;SDS011;4552;43.422;24.592;2023-06-01T02:53:12;5.47;;;4.20;;
9034;SDS011;4552;43.422;24.592;2023-06-01T02:55:39;9.27;;;4.03;;
9034;SDS011;4552;43.422;24.592;2023-06-01T02:58:06;7.80;;;4.97;;
9034;SDS011;4552;43.422;24.592;2023-06-01T03:00:40;8.60;;;5.70;;
9034;SDS011;4552;43.422;24.592;2023-06-01T03:03:07;7.63;;;5.30;;
9034;SDS011;4552;43.422;24.592;2023-06-01T03:05:33;5.50;;;4.40;;
9034;SDS011;4552;43.422;24.592;2023-06-01T03:08:01;5.83;;;4.40;;
9034;SDS011;4552;43.422;24.592;2023-06-01T03:10:29;8.33;;;4.13;;
9034;SDS011;4552;43.422;24.592;2023-06-01T03:12:56;5.67;;;3.90;;
9034;SDS011;4552;43.422;24.592;2023-06-01T03:15:23;4.40;;;3.73;;
9034;SDS011;4552;43.422;24.592;2023-06-01T03:51:41;9.40;;;6.33;;
9034;SDS011;4552;43.422;24.592;2023-06-01T03:54:08;8.40;;;5.87;;
9034;SDS011;4552;43.422;24.592;2023-06-01T03:56:35;11.50;;;6.00;;
9034;SDS011;4552;43.422;24.592;2023-06-01T03:59:02;7.77;;;6.77;;
9034;SDS011;4552;43.422;24.592;2023-06-01T04:01:29;9.73;;;5.80;;
9034;SDS011;4552;43.422;24.592;2023-06-01T04:03:57;8.27;;;5.97;;
9034;SDS011;4552;43.422;24.592;2023-06-01T04:06:25;10.83;;;6.50;;
9034;SDS011;4552;43.422;24.592;2023-06-01T04:08:56;6.57;;;5.70;;
9034;SDS011;4552;43.422;24.592;2023-06-01T04:11:25;8.70;;;6.10;;
9034;SDS011;4552;43.422;24.592;2023-06-01T04:13:52;8.50;;;6.23;;
9034;SDS011;4552;43.422;24.592;2023-06-01T04:16:22;14.57;;;8.70;;
9034;SDS011;4552;43.422;24.592;2023-06-01T04:25:33;6.67;;;4.80;;
9034;SDS011;4552;43.422;24.592;2023-06-01T04:28:01;6.17;;;4.13;;
9034;SDS011;4552;43.422;24.592;2023-06-01T04:30:28;5.40;;;4.40;;
9034;SDS011;4552;43.422;24.592;2023-06-01T04:32:55;8.37;;;4.90;;
9034;SDS011;4552;43.422;24.592;2023-06-01T04:35:22;5.73;;;4.33;;
9034;SDS011;4552;43.422;24.592;2023-06-01T04:37:49;13.57;;;7.93;;
9034;SDS011;4552;43.422;24.592;2023-06-01T04:40:16;17.67;;;10.63;;
9034;SDS011;4552;43.422;24.592;2023-06-01T04:42:45;5.03;;;4.00;;
9034;SDS011;4552;43.422;24.592;2023-06-01T04:45:14;5.17;;;3.97;;
9034;SDS011;4552;43.422;24.592;2023-06-01T04:47:42;7.07;;;4.13;;
9034;SDS011;4552;43.422;24.592;2023-06-01T04:50:11;5.77;;;4.00;;
9034;SDS011;4552;43.422;24.592;2023-06-01T04:52:43;4.67;;;3.77;;
9034;SDS011;4552;43.422;24.592;2023-06-01T04:55:11;4.63;;;3.40;;
9034;SDS011;4552;43.422;24.592;2023-06-01T04:57:39;4.83;;;3.70;;
9034;SDS011;4552;43.422;24.592;2023-06-01T05:00:10;5.97;;;4.30;;
9034;SDS011;4552;43.422;24.592;2023-06-01T05:02:38;4.40;;;4.00;;
9034;SDS011;4552;43.422;24.592;2023-06-01T05:05:06;4.23;;;3.80;;
9034;SDS011;4552;43.422;24.592;2023-06-01T05:07:34;3.20;;;2.80;;
9034;SDS011;4552;43.422;24.592;2023-06-01T05:10:02;4.27;;;3.07;;
9034;SDS011;4552;43.422;24.592;2023-06-01T05:12:31;5.90;;;3.30;;
9034;SDS011;4552;43.422;24.592;2023-06-01T05:14:58;10.70;;;4.97;;
9034;SDS011;4552;43.422;24.592;2023-06-01T05:24:10;4.07;;;3.20;;
9034;SDS011;4552;43.422;24.592;2023-06-01T05:26:37;3.80;;;3.37;;
9034;SDS011;4552;43.422;24.592;2023-06-01T05:29:05;3.73;;;3.10;;
9034;SDS011;4552;43.422;24.592;2023-06-01T05:31:32;6.03;;;4.10;;
9034;SDS011;4552;43.422;24.592;2023-06-01T05:33:59;4.37;;;3.57;;
9034;SDS011;4552;43.422;24.592;2023-06-01T05:36:26;4.93;;;3.23;;
9034;SDS011;4552;43.422;24.592;2023-06-01T05:38:53;3.53;;;3.00;;
9034;SDS011;4552;43.422;24.592;2023-06-01T05:41:22;5.20;;;3.03;;
9034;SDS011;4552;43.422;24.592;2023-06-01T05:43:49;3.97;;;3.00;;
9034;SDS011;4552;43.422;24.592;2023-06-01T05:46:16;3.13;;;2.83;;
9034;SDS011;4552;43.422;24.592;2023-06-01T06:02:22;3.00;;;2.70;;
9034;SDS011;4552;43.422;24.592;2023-06-01T06:04:49;6.17;;;3.57;;
9034;SDS011;4552;43.422;24.592;2023-06-01T06:07:16;4.07;;;3.00;;
9034;SDS011;4552;43.422;24.592;2023-06-01T06:09:45;3.40;;;3.10;;
9034;SDS011;4552;43.422;24.592;2023-06-01T06:12:12;3.00;;;2.70;;
9034;SDS011;4552;43.422;24.592;2023-06-01T06:14:39;4.23;;;2.60;;
9034;SDS011;4552;43.422;24.592;2023-06-01T06:17:06;3.43;;;3.03;;
9034;SDS011;4552;43.422;24.592;2023-06-01T06:19:34;4.87;;;3.00;;
9034;SDS011;4552;43.422;24.592;2023-06-01T06:22:02;5.33;;;3.47;;
9034;SDS011;4552;43.422;24.592;2023-06-01T06:24:29;7.37;;;3.10;;
9034;SDS011;4552;43.422;24.592;2023-06-01T06:26:55;3.20;;;2.83;;
9034;SDS011;4552;43.422;24.592;2023-06-01T06:29:22;4.60;;;3.07;;
9034;SDS011;4552;43.422;24.592;2023-06-01T06:31:49;3.73;;;2.90;;
9034;SDS011;4552;43.422;24.592;2023-06-01T06:44:23;4.80;;;3.33;;
9034;SDS011;4552;43.422;24.592;2023-06-01T06:46:50;5.37;;;3.47;;
9034;SDS011;4552;43.422;24.592;2023-06-01T06:59:20;4.00;;;3.30;;
9034;SDS011;4552;43.422;24.592;2023-06-01T07:01:48;3.70;;;3.00;;
9034;SDS011;4552;43.422;24.592;2023-06-01T07:04:15;4.27;;;3.30;;
9034;SDS011;4552;43.422;24.592;2023-06-01T07:06:42;4.00;;;3.10;;
9034;SDS011;4552;43.422;24.592;2023-06-01T07:09:09;3.80;;;3.00;;
9034;SDS011;4552;43.422;24.592;2023-06-01T07:11:36;3.37;;;3.07;;
9034;SDS011;4552;43.422;24.592;2023-06-01T07:14:03;6.10;;;3.50;;
9034;SDS011;4552;43.422;24.592;2023-06-01T07:16:30;4.57;;;3.73;;
9034;SDS011;4552;43.422;24.592;2023-06-01T07:29:03;5.03;;;3.90;;
9034;SDS011;4552;43.422;24.592;2023-06-01T07:31:31;4.80;;;3.80;;
9034;SDS011;4552;43.422;24.592;2023-06-01T08:24:07;5.07;;;4.57;;
9034;SDS011;4552;43.422;24.592;2023-06-01T08:26:35;4.67;;;3.80;;
9034;SDS011;4552;43.422;24.592;2023-06-01T08:29:02;4.70;;;3.87;;
9034;SDS011;4552;43.422;24.592;2023-06-01T08:31:29;5.03;;;4.10;;
9034;SDS011;4552;43.422;24.592;2023-06-01T09:17:43;4.20;;;3.67;;
9034;SDS011;4552;43.422;24.592;2023-06-01T09:20:12;4.28;;;3.78;;
9034;SDS011;4552;43.422;24.592;2023-06-01T09:22:43;7.07;;;3.87;;
9034;SDS011;4552;43.422;24.592;2023-06-01T09:25:13;4.57;;;3.70;;
9034;SDS011;4552;43.422;24.592;2023-06-01T09:27:45;5.53;;;3.63;;
9034;SDS011;4552;43.422;24.592;2023-06-01T09:30:14;4.23;;;3.80;;
9034;SDS011;4552;43.422;24.592;2023-06-01T09:52:58;7.95;;;6.60;;
9034;SDS011;4552;43.422;24.592;2023-06-01T09:55:25;7.23;;;5.57;;
9034;SDS011;4552;43.422;24.592;2023-06-01T09:57:52;4.27;;;3.50;;
9034;SDS011;4552;43.422;24.592;2023-06-01T10:00:40;6.43;;;3.80;;
9034;SDS011;4552;43.422;24.592;2023-06-01T10:03:07;5.07;;;3.80;;
9034;SDS011;4552;43.422;24.592;2023-06-01T10:05:35;6.97;;;4.00;;
9034;SDS011;4552;43.422;24.592;2023-06-01T10:08:03;5.00;;;4.07;;
9034;SDS011;4552;43.422;24.592;2023-06-01T10:10:30;4.45;;;3.75;;
9034;SDS011;4552;43.422;24.592;2023-06-01T10:12:59;4.57;;;3.50;;
9034;SDS011;4552;43.422;24.592;2023-06-01T10:15:25;3.80;;;3.30;;
9034;SDS011;4552;43.422;24.592;2023-06-01T11:09:06;3.70;;;3.30;;
9034;SDS011;4552;43.422;24.592;2023-06-01T11:11:59;5.17;;;3.27;;
9034;SDS011;4552;43.422;24.592;2023-06-01T11:14:27;3.67;;;3.10;;
9034;SDS011;4552;43.422;24.592;2023-06-01T11:19:59;4.03;;;2.83;;
9034;SDS011;4552;43.422;24.592;2023-06-01T11:22:36;4.23;;;3.33;;
9034;SDS011;4552;43.422;24.592;2023-06-01T11:28:28;5.53;;;4.50;;
9034;SDS011;4552;43.422;24.592;2023-06-01T11:30:56;62.20;;;49.80;;
9034;SDS011;4552;43.422;24.592;2023-06-01T11:33:24;75.47;;;62.77;;
9034;SDS011;4552;43.422;24.592;2023-06-01T11:35:57;49.90;;;35.00;;
9034;SDS011;4552;43.422;24.592;2023-06-01T11:38:24;5.20;;;4.00;;
9034;SDS011;4552;43.422;24.592;2023-06-01T11:40:59;4.50;;;3.97;;
9034;SDS011;4552;43.422;24.592;2023-06-01T11:43:32;10.40;;;7.10;;
9034;SDS011;4552;43.422;24.592;2023-06-01T11:46:02;6.67;;;3.60;;
9034;SDS011;4552;43.422;24.592;2023-06-01T11:48:30;6.00;;;4.20;;
9034;SDS011;4552;43.422;24.592;2023-06-01T11:51:01;3.77;;;3.37;;
9034;SDS011;4552;43.422;24.592;2023-06-01T11:53:28;4.20;;;3.03;;
9034;SDS011;4552;43.422;24.592;2023-06-01T11:55:57;3.97;;;3.07;;
9034;SDS011;4552;43.422;24.592;2023-06-01T11:58:25;4.20;;;3.17;;
9034;SDS011;4552;43.422;24.592;2023-06-01T12:00:55;4.77;;;3.10;;
9034;SDS011;4552;43.422;24.592;2023-06-01T12:03:22;4.37;;;2.97;;
9034;SDS011;4552;43.422;24.592;2023-06-01T12:05:50;8.80;;;3.53;;
9034;SDS011;4552;43.422;24.592;2023-06-01T12:08:18;6.77;;;2.93;;
9034;SDS011;4552;43.422;24.592;2023-06-01T12:10:47;5.87;;;3.43;;
9034;SDS011;4552;43.422;24.592;2023-06-01T12:13:15;5.13;;;2.90;;
9034;SDS011;4552;43.422;24.592;2023-06-01T12:15:44;3.50;;;3.00;;
9034;SDS011;4552;43.422;24.592;2023-06-01T12:18:13;6.40;;;3.33;;
9034;SDS011;4552;43.422;24.592;2023-06-01T12:20:42;4.47;;;3.50;;
9034;SDS011;4552;43.422;24.592;2023-06-01T12:23:13;4.27;;;3.30;;
9034;SDS011;4552;43.422;24.592;2023-06-01T12:25:48;4.20;;;3.03;;
9034;SDS011;4552;43.422;24.592;2023-06-01T12:28:16;3.37;;;2.70;;
9034;SDS011;4552;43.422;24.592;2023-06-01T12:30:45;3.87;;;3.30;;
9034;SDS011;4552;43.422;24.592;2023-06-01T12:33:33;4.37;;;3.50;;
9034;SDS011;4552;43.422;24.592;2023-06-01T12:36:07;7.47;;;3.33;;
9034;SDS011;4552;43.422;24.592;2023-06-01T12:38:34;4.93;;;3.27;;
9034;SDS011;4552;43.422;24.592;2023-06-01T12:41:06;4.60;;;3.63;;
9034;SDS011;4552;43.422;24.592;2023-06-01T12:43:34;6.53;;;3.83;;
9034;SDS011;4552;43.422;24.592;2023-06-01T12:46:01;4.67;;;3.43;;
9034;SDS011;4552;43.422;24.592;2023-06-01T12:48:30;5.07;;;3.53;;
9034;SDS011;4552;43.422;24.592;2023-06-01T12:51:00;5.37;;;3.30;;
9034;SDS011;4552;43.422;24.592;2023-06-01T12:53:27;5.07;;;3.70;;
9034;SDS011;4552;43.422;24.592;2023-06-01T12:59:21;5.50;;;3.20;;
9034;SDS011;4552;43.422;24.592;2023-06-01T13:01:49;7.57;;;4.43;;
9034;SDS011;4552;43.422;24.592;2023-06-01T13:04:19;6.20;;;4.30;;
9034;SDS011;4552;43.422;24.592;2023-06-01T13:06:47;5.77;;;3.43;;
9034;SDS011;4552;43.422;24.592;2023-06-01T13:23:54;4.37;;;3.90;;
9034;SDS011;4552;43.422;24.592;2023-06-01T13:26:21;6.60;;;3.97;;
9034;SDS011;4552;43.422;24.592;2023-06-01T13:28:50;6.50;;;3.53;;
9034;SDS011;4552;43.422;24.592;2023-06-01T13:31:17;4.43;;;3.23;;
9034;SDS011;4552;43.422;24.592;2023-06-01T13:33:44;4.00;;;3.57;;
9034;SDS011;4552;43.422;24.592;2023-06-01T13:36:13;4.30;;;3.67;;
9034;SDS011;4552;43.422;24.592;2023-06-01T13:38:40;3.47;;;3.17;;
9034;SDS011;4552;43.422;24.592;2023-06-01T13:41:08;3.53;;;3.23;;
9034;SDS011;4552;43.422;24.592;2023-06-01T13:43:43;4.53;;;3.10;;
9034;SDS011;4552;43.422;24.592;2023-06-01T13:46:10;5.87;;;3.37;;
9034;SDS011;4552;43.422;24.592;2023-06-01T13:48:37;3.77;;;3.10;;
9034;SDS011;4552;43.422;24.592;2023-06-01T13:51:04;4.20;;;2.97;;
9034;SDS011;4552;43.422;24.592;2023-06-01T13:53:31;3.03;;;2.60;;
9034;SDS011;4552;43.422;24.592;2023-06-01T13:55:59;4.80;;;3.07;;
9034;SDS011;4552;43.422;24.592;2023-06-01T13:58:28;3.60;;;3.00;;
9034;SDS011;4552;43.422;24.592;2023-06-01T14:00:55;4.93;;;3.00;;
9034;SDS011;4552;43.422;24.592;2023-06-01T14:03:22;5.90;;;3.50;;
9034;SDS011;4552;43.422;24.592;2023-06-01T14:05:49;7.77;;;6.10;;
9034;SDS011;4552;43.422;24.592;2023-06-01T14:08:16;3.43;;;2.83;;
9034;SDS011;4552;43.422;24.592;2023-06-01T14:13:52;2.87;;;2.57;;
9034;SDS011;4552;43.422;24.592;2023-06-01T14:16:19;4.32;;;3.45;;
9034;SDS011;4552;43.422;24.592;2023-06-01T14:18:46;3.57;;;3.20;;
9034;SDS011;4552;43.422;24.592;2023-06-01T14:21:13;4.37;;;3.50;;
9034;SDS011;4552;43.422;24.592;2023-06-01T14:23:40;6.63;;;4.13;;
9034;SDS011;4552;43.422;24.592;2023-06-01T14:53:06;4.90;;;3.97;;
9034;SDS011;4552;43.422;24.592;2023-06-01T15:09:02;3.43;;;2.73;;
9034;SDS011;4552;43.422;24.592;2023-06-01T15:32:42;4.63;;;3.30;;
9034;SDS011;4552;43.422;24.592;2023-06-01T15:35:09;4.60;;;3.13;;
9034;SDS011;4552;43.422;24.592;2023-06-01T15:37:36;5.30;;;3.63;;
9034;SDS011;4552;43.422;24.592;2023-06-01T15:40:04;27.27;;;13.10;;
9034;SDS011;4552;43.422;24.592;2023-06-01T15:42:38;23.50;;;9.20;;
9034;SDS011;4552;43.422;24.592;2023-06-01T15:45:06;4.03;;;3.40;;
9034;SDS011;4552;43.422;24.592;2023-06-01T15:47:34;7.30;;;3.17;;
9034;SDS011;4552;43.422;24.592;2023-06-01T15:50:02;15.20;;;8.77;;
9034;SDS011;4552;43.422;24.592;2023-06-01T15:52:29;11.70;;;8.53;;
9034;SDS011;4552;43.422;24.592;2023-06-01T15:54:56;7.70;;;5.78;;
9034;SDS011;4552;43.422;24.592;2023-06-01T15:57:23;9.10;;;3.57;;
9034;SDS011;4552;43.422;24.592;2023-06-01T15:59:50;3.43;;;2.87;;
9034;SDS011;4552;43.422;24.592;2023-06-01T16:02:17;6.63;;;3.07;;
9034;SDS011;4552;43.422;24.592;2023-06-01T16:04:44;4.27;;;3.70;;
9034;SDS011;4552;43.422;24.592;2023-06-01T16:07:13;5.83;;;3.43;;
9034;SDS011;4552;43.422;24.592;2023-06-01T16:09:39;3.37;;;3.07;;
9034;SDS011;4552;43.422;24.592;2023-06-01T16:12:07;6.67;;;3.07;;
9034;SDS011;4552;43.422;24.592;2023-06-01T16:14:34;4.50;;;3.10;;
9034;SDS011;4552;43.422;24.592;2023-06-01T16:17:01;6.97;;;5.63;;
9034;SDS011;4552;43.422;24.592;2023-06-01T16:19:28;5.43;;;3.97;;
9034;SDS011;4552;43.422;24.592;2023-06-01T16:21:58;4.80;;;3.57;;
9034;SDS011;4552;43.422;24.592;2023-06-01T16:24:27;7.20;;;4.20;;
9034;SDS011;4552;43.422;24.592;2023-06-01T16:26:54;4.20;;;3.50;;
9034;SDS011;4552;43.422;24.592;2023-06-01T16:29:21;4.23;;;3.17;;
9034;SDS011;4552;43.422;24.592;2023-06-01T17:18:12;5.30;;;3.23;;
9034;SDS011;4552;43.422;24.592;2023-06-01T17:20:39;5.73;;;3.70;;
9034;SDS011;4552;43.422;24.592;2023-06-01T17:23:06;4.03;;;3.40;;
9034;SDS011;4552;43.422;24.592;2023-06-01T17:25:33;3.50;;;3.10;;
9034;SDS011;4552;43.422;24.592;2023-06-01T17:28:00;4.73;;;3.50;;
9034;SDS011;4552;43.422;24.592;2023-06-01T17:30:27;6.43;;;2.83;;
9034;SDS011;4552;43.422;24.592;2023-06-01T17:32:54;5.20;;;3.27;;
9034;SDS011;4552;43.422;24.592;2023-06-01T17:35:22;3.93;;;3.33;;
9034;SDS011;4552;43.422;24.592;2023-06-01T17:37:49;5.28;;;4.15;;
9034;SDS011;4552;43.422;24.592;2023-06-01T18:03:51;8.93;;;6.07;;
9034;SDS011;4552;43.422;24.592;2023-06-01T18:06:18;11.43;;;6.30;;
9034;SDS011;4552;43.422;24.592;2023-06-01T18:08:45;8.37;;;5.30;;
9034;SDS011;4552;43.422;24.592;2023-06-01T20:02:22;8.63;;;4.47;;
9034;SDS011;4552;43.422;24.592;2023-06-01T20:05:09;7.17;;;4.33;;
9034;SDS011;4552;43.422;24.592;2023-06-01T20:07:38;6.70;;;5.03;;
9034;SDS011;4552;43.422;24.592;2023-06-01T20:10:07;10.07;;;6.27;;
9034;SDS011;4552;43.422;24.592;2023-06-01T20:12:42;16.10;;;8.90;;
9034;SDS011;4552;43.422;24.592;2023-06-01T20:15:09;9.77;;;6.10;;
9034;SDS011;4552;43.422;24.592;2023-06-01T20:17:48;6.33;;;4.83;;
9034;SDS011;4552;43.422;24.592;2023-06-01T20:20:16;5.83;;;4.70;;
9034;SDS011;4552;43.422;24.592;2023-06-01T20:22:44;5.97;;;4.40;;
9034;SDS011;4552;43.422;24.592;2023-06-01T20:25:11;4.63;;;4.03;;
9034;SDS011;4552;43.422;24.592;2023-06-01T20:27:45;6.13;;;3.70;;
9034;SDS011;4552;43.422;24.592;2023-06-01T20:30:22;9.10;;;3.90;;
9034;SDS011;4552;43.422;24.592;2023-06-01T20:33:15;5.60;;;3.90;;
9034;SDS011;4552;43.422;24.592;2023-06-01T20:35:49;6.47;;;4.60;;
9034;SDS011;4552;43.422;24.592;2023-06-01T20:38:16;6.87;;;4.43;;
9034;SDS011;4552;43.422;24.592;2023-06-01T20:41:00;4.57;;;3.67;;
9034;SDS011;4552;43.422;24.592;2023-06-01T20:43:34;3.70;;;3.17;;
9034;SDS011;4552;43.422;24.592;2023-06-01T20:46:02;4.23;;;3.47;;
9034;SDS011;4552;43.422;24.592;2023-06-01T20:48:36;4.93;;;3.70;;
9034;SDS011;4552;43.422;24.592;2023-06-01T20:51:08;5.20;;;3.73;;
9034;SDS011;4552;43.422;24.592;2023-06-01T20:54:10;4.60;;;3.83;;
9034;SDS011;4552;43.422;24.592;2023-06-01T20:56:38;4.27;;;3.43;;
9034;SDS011;4552;43.422;24.592;2023-06-01T20:59:07;4.33;;;3.50;;
9034;SDS011;4552;43.422;24.592;2023-06-01T21:55:42;3.70;;;3.40;;
9034;SDS011;4552;43.422;24.592;2023-06-01T21:58:10;4.80;;;4.00;;
9034;SDS011;4552;43.422;24.592;2023-06-01T22:00:38;6.60;;;3.93;;
9034;SDS011;4552;43.422;24.592;2023-06-01T22:03:06;4.93;;;3.93;;
9034;SDS011;4552;43.422;24.592;2023-06-01T22:05:33;4.80;;;4.10;;
9034;SDS011;4552;43.422;24.592;2023-06-01T22:08:01;7.40;;;4.13;;
9034;SDS011;4552;43.422;24.592;2023-06-01T22:10:29;3.80;;;3.23;;
9034;SDS011;4552;43.422;24.592;2023-06-01T22:12:58;4.73;;;4.23;;
9034;SDS011;4552;43.422;24.592;2023-06-01T22:15:25;5.13;;;3.77;;
9034;SDS011;4552;43.422;24.592;2023-06-01T22:17:52;6.03;;;4.00;;
9034;SDS011;4552;43.422;24.592;2023-06-01T22:20:20;4.77;;;3.53;;
9034;SDS011;4552;43.422;24.592;2023-06-01T22:22:47;4.60;;;3.67;;
9034;SDS011;4552;43.422;24.592;2023-06-01T22:31:58;4.78;;;4.10;;
9034;SDS011;4552;43.422;24.592;2023-06-01T22:34:25;3.97;;;3.30;;
9034;SDS011;4552;43.422;24.592;2023-06-01T22:36:52;4.87;;;3.90;;
9034;SDS011;4552;43.422;24.592;2023-06-01T22:39:20;3.63;;;3.33;;
9034;SDS011;4552;43.422;24.592;2023-06-01T22:51:30;6.07;;;3.95;;
9034;SDS011;4552;43.422;24.592;2023-06-01T22:53:57;5.50;;;3.70;;
9034;SDS011;4552;43.422;24.592;2023-06-01T22:56:25;4.77;;;3.80;;
9034;SDS011;4552;43.422;24.592;2023-06-01T22:58:52;3.80;;;3.30;;
9034;SDS011;4552;43.422;24.592;2023-06-01T23:01:19;4.33;;;3.77;;
9034;SDS011;4552;43.422;24.592;2023-06-01T23:03:46;10.00;;;3.77;;
9034;SDS011;4552;43.422;24.592;2023-06-01T23:06:14;5.23;;;3.53;;
9034;SDS011;4552;43.422;24.592;2023-06-01T23:08:41;3.83;;;3.43;;
9034;SDS011;4552;43.422;24.592;2023-06-01T23:11:14;4.03;;;3.60;;
9034;SDS011;4552;43.422;24.592;2023-06-01T23:13:43;6.80;;;3.83;;
9034;SDS011;4552;43.422;24.592;2023-06-01T23:16:12;3.83;;;3.37;;
9034;SDS011;4552;43.422;24.592;2023-06-01T23:18:39;4.83;;;3.57;;
9034;SDS011;4552;43.422;24.592;2023-06-01T23:21:06;4.63;;;3.80;;
9034;SDS011;4552;43.422;24.592;2023-06-01T23:23:39;6.90;;;3.80;;
9034;SDS011;4552;43.422;24.592;2023-06-01T23:26:09;6.57;;;4.10;;
9034;SDS011;4552;43.422;24.592;2023-06-01T23:28:50;4.60;;;3.70;;
9034;SDS011;4552;43.422;24.592;2023-06-01T23:31:18;6.07;;;3.77;;
9034;SDS011;4552;43.422;24.592;2023-06-01T23:33:45;5.37;;;4.10;;
9034;SDS011;4552;43.422;24.592;2023-06-01T23:36:13;4.23;;;3.83;;
9034;SDS011;4552;43.422;24.592;2023-06-01T23:38:45;5.53;;;4.10;;
9034;SDS011;4552;43.422;24.592;2023-06-01T23:41:16;5.33;;;4.20;;
9034;SDS011;4552;43.422;24.592;2023-06-01T23:44:18;4.33;;;3.60;;
9034;SDS011;4552;43.422;24.592;2023-06-01T23:46:46;7.57;;;4.93;;
